Time;durP1;ratioP1;P1;durP2;ratioP2;P2;SDS_P1;SDS_P2;PMS_P1;PMS_P2;Temp;Humidity;BMP_temperature;BMP_pressure;BME280_temperature;BME280_humidity;BME280_pressure;Samples;Min_cycle;Max_cycle;Signal;HPM_P1;HPM_P2
2022/11/16 00:01:26;;;;;;;79.30;40.10;;;;;;;8.44;84.17;99686.16;5105416;28;20103;-68
2022/11/16 00:03:52;;;;;;;79.68;39.88;;;;;;;8.39;84.50;99677.88;5103592;28;20020;-70
2022/11/16 00:06:19;;;;;;;77.93;38.17;;;;;;;8.56;83.57;99687.59;5105248;28;20046;-70
2022/11/16 00:09:20;;;;;;;83.60;39.70;;;;;;;8.60;83.98;99688.97;5106942;28;20289;-70
2022/11/16 00:11:33;;;;;;;77.68;39.10;;;;;;;8.45;84.40;99677.25;5107220;28;20070;-69
2022/11/16 00:13:58;;;;;;;73.80;36.22;;;;;;;8.43;84.87;99686.31;5106211;28;20230;-69
2022/11/16 00:16:24;;;;;;;77.90;39.15;;;;;;;8.34;85.12;99680.13;5106996;28;20046;-70
2022/11/16 00:18:55;;;;;;;79.93;38.67;;;;;;;8.56;84.51;99686.78;5106510;28;20032;-70
2022/11/16 00:21:20;;;;;;;77.80;37.03;;;;;;;8.56;84.84;99669.13;5105210;28;20038;-70
2022/11/16 00:23:46;;;;;;;71.57;36.63;;;;;;;8.59;84.87;99668.00;5106968;28;20313;-68
2022/11/16 00:26:12;;;;;;;76.20;37.58;;;;;;;8.57;85.57;99667.31;5103525;28;20040;-69
2022/11/16 00:28:37;;;;;;;74.95;36.92;;;;;;;8.70;85.23;99665.13;5102481;28;20262;-68
2022/11/16 00:31:05;;;;;;;70.85;36.00;;;;;;;8.71;85.33;99663.31;5105784;28;20051;-69
2022/11/16 00:33:31;;;;;;;75.57;37.35;;;;;;;8.77;84.92;99652.97;5106321;28;20321;-70
2022/11/16 00:35:59;;;;;;;71.72;35.42;;;;;;;8.76;84.08;99651.31;5105272;28;20047;-70
2022/11/16 00:38:24;;;;;;;68.60;35.67;;;;;;;8.81;84.74;99654.31;5106809;28;20027;-70
2022/11/16 00:40:50;;;;;;;74.93;35.78;;;;;;;8.91;84.23;99648.94;5105959;28;20042;-70
2022/11/16 00:43:15;;;;;;;70.93;35.83;;;;;;;8.80;84.10;99651.84;5106145;28;20229;-69
2022/11/16 00:45:41;;;;;;;68.25;34.05;;;;;;;8.88;83.71;99650.09;5106416;28;20183;-69
2022/11/16 00:48:07;;;;;;;70.55;35.42;;;;;;;8.85;83.78;99644.28;5105453;28;20313;-70
2022/11/16 00:50:32;;;;;;;63.40;30.58;;;;;;;8.68;79.89;99645.97;5099801;28;20050;-70
2022/11/16 00:52:58;;;;;;;61.35;30.60;;;;;;;8.51;80.69;99637.06;5104888;28;20042;-70
2022/11/16 00:55:23;;;;;;;70.95;34.50;;;;;;;8.51;81.03;99641.53;5105974;28;20305;-69
2022/11/16 00:57:48;;;;;;;61.70;31.45;;;;;;;8.42;80.87;99634.53;5099348;28;20505;-69
2022/11/16 01:00:15;;;;;;;62.35;32.72;;;;;;;8.27;81.54;99632.34;5105969;28;20038;-70
2022/11/16 01:02:40;;;;;;;64.65;33.03;;;;;;;8.26;82.20;99640.41;5106463;28;20322;-70
2022/11/16 01:05:08;;;;;;;69.43;33.25;;;;;;;8.28;82.52;99641.09;5105060;28;20031;-70
2022/11/16 01:07:35;;;;;;;71.80;34.40;;;;;;;8.25;82.75;99628.19;5105585;28;20036;-69
2022/11/16 01:10:06;;;;;;;76.78;35.90;;;;;;;8.27;83.58;99629.69;5105448;28;20033;-68
2022/11/16 01:12:31;;;;;;;71.93;35.35;;;;;;;8.31;83.94;99623.16;5104441;28;20055;-69
2022/11/16 01:14:57;;;;;;;72.72;33.63;;;;;;;8.39;84.38;99619.00;5101703;28;20115;-70
2022/11/16 01:17:22;;;;;;;70.55;34.05;;;;;;;8.48;84.08;99608.34;5102024;28;20042;-70
2022/11/16 01:19:48;;;;;;;70.78;34.63;;;;;;;8.48;84.10;99607.53;5104696;28;20036;-70
2022/11/16 01:22:13;;;;;;;72.53;35.55;;;;;;;8.46;84.20;99615.59;5106044;28;20031;-70
2022/11/16 01:25:18;;;;;;;70.90;33.08;;;;;;;8.41;84.58;99623.13;5289982;22;20266;-72
2022/11/16 01:27:44;;;;;;;;;;;;;;;8.45;84.09;99618.38;5101507;28;20027;-72
2022/11/16 01:30:12;;;;;;;65.07;33.20;;;;;;;8.32;84.76;99613.41;5098998;28;20197;-72
2022/11/16 01:32:38;;;;;;;70.03;33.13;;;;;;;8.32;84.57;99618.69;5100140;28;20095;-72
2022/11/16 01:35:05;;;;;;;74.70;35.55;;;;;;;8.21;84.30;99596.00;5098417;28;20333;-72
2022/11/16 01:37:31;;;;;;;81.00;36.60;;;;;;;8.40;83.51;99613.56;5098953;28;20419;-72
2022/11/16 01:39:56;;;;;;;73.72;35.42;;;;;;;8.23;84.48;99614.31;5099581;28;20043;-72
2022/11/16 01:42:25;;;;;;;71.18;34.38;;;;;;;8.20;84.68;99607.53;5098866;28;20039;-72
2022/11/16 01:45:00;;;;;;;70.20;34.28;;;;;;;8.18;84.86;99608.66;5095710;28;20040;-72
2022/11/16 01:47:26;;;;;;;71.25;33.13;;;;;;;8.15;84.53;99604.53;5099462;28;20030;-72
2022/11/16 01:50:11;;;;;;;69.70;35.03;;;;;;;8.13;84.41;99585.38;5098694;28;20055;-73
2022/11/16 01:52:42;;;;;;;66.82;34.50;;;;;;;8.12;84.34;99589.00;5101273;28;20035;-72
2022/11/16 01:55:09;;;;;;;65.65;33.63;;;;;;;8.16;83.93;99597.44;5098812;28;20110;-72
2022/11/16 01:57:38;;;;;;;74.80;35.25;;;;;;;8.26;83.55;99595.56;5099283;28;20044;-72
2022/11/16 02:00:07;;;;;;;69.25;33.75;;;;;;;8.24;83.03;99601.00;5099427;28;20043;-72
2022/11/16 02:02:32;;;;;;;65.47;34.13;;;;;;;8.21;83.21;99601.28;5101045;28;20340;-72
2022/11/16 02:05:00;;;;;;;63.33;31.55;;;;;;;8.17;82.75;99596.47;5100426;28;20065;-73
2022/11/16 02:11:08;;;;;;;61.72;31.00;;;;;;;8.06;83.31;99597.50;5098280;28;20103;-72
2022/11/16 02:13:58;;;;;;;61.67;31.30;;;;;;;8.13;82.90;99603.00;5099060;28;20044;-72
2022/11/16 02:16:47;;;;;;;65.47;30.83;;;;;;;8.05;83.74;99601.13;5099031;28;20277;-72
2022/11/16 02:19:43;;;;;;;59.85;30.73;;;;;;;7.83;83.74;99596.28;5099027;28;20028;-72
2022/11/16 02:23:01;;;;;;;65.75;31.50;;;;;;;8.02;83.48;99581.16;5097011;28;20300;-72
2022/11/16 02:25:54;;;;;;;63.20;31.35;;;;;;;8.00;83.41;99580.47;5097368;28;20089;-72
2022/11/16 02:28:46;;;;;;;71.45;33.47;;;;;;;8.03;83.31;99576.72;5099816;28;20028;-72
2022/11/16 02:31:18;;;;;;;68.20;32.97;;;;;;;7.97;83.88;99575.50;5096781;28;20028;-72
2022/11/16 02:33:47;;;;;;;66.85;33.67;;;;;;;7.95;83.41;99574.81;5098933;28;20032;-72
2022/11/16 02:36:17;;;;;;;75.57;34.95;;;;;;;7.96;83.46;99573.03;5099841;28;20106;-72
2022/11/16 02:38:51;;;;;;;67.18;32.80;;;;;;;7.89;84.00;99569.31;5101042;28;20032;-72
2022/11/16 02:41:21;;;;;;;69.20;33.85;;;;;;;7.91;84.13;99570.84;5098200;28;20028;-72
2022/11/16 02:43:59;;;;;;;74.50;34.45;;;;;;;7.88;84.47;99551.84;5098508;28;20454;-72
2022/11/16 02:46:31;;;;;;;66.10;32.78;;;;;;;7.92;84.31;99561.94;5094233;28;20352;-72
2022/11/16 02:49:01;;;;;;;67.20;31.92;;;;;;;7.99;83.27;99549.00;5102439;28;20030;-72
2022/11/16 02:51:28;;;;;;;65.75;32.50;;;;;;;7.81;84.81;99554.25;5101906;28;20035;-72
2022/11/16 02:54:16;;;;;;;73.15;34.67;;;;;;;7.81;84.80;99551.63;5101954;28;20035;-72
2022/11/16 02:57:00;;;;;;;68.05;33.05;;;;;;;7.81;84.33;99537.59;5100274;28;20231;-72
2022/11/16 02:59:37;;;;;;;66.25;32.03;;;;;;;7.91;84.18;99538.38;5100058;28;20028;-72
2022/11/16 03:02:20;;;;;;;70.60;32.33;;;;;;;7.84;84.33;99532.03;5100425;28;20023;-72
2022/11/16 03:04:50;;;;;;;60.03;31.30;;;;;;;7.94;83.60;99538.91;5102788;28;20054;-72
2022/11/16 03:07:21;;;;;;;65.05;31.40;;;;;;;7.95;83.74;99526.53;5102716;28;20024;-72
2022/11/16 03:09:49;;;;;;;61.42;30.80;;;;;;;7.91;83.96;99528.66;5101897;28;20366;-72
2022/11/16 03:12:22;;;;;;;60.10;31.70;;;;;;;7.84;84.63;99518.84;5102991;28;20107;-72
2022/11/16 03:14:50;;;;;;;59.10;30.85;;;;;;;7.97;84.09;99521.94;5102485;28;20039;-72
2022/11/16 03:17:40;;;;;;;58.40;30.15;;;;;;;8.12;84.29;99509.06;5101514;28;20043;-72
2022/11/16 03:20:11;;;;;;;66.90;31.60;;;;;;;8.19;83.80;99508.28;5102387;28;20088;-72
2022/11/16 03:22:40;;;;;;;73.43;34.50;;;;;;;8.18;83.34;99509.28;5102411;28;20141;-72
2022/11/16 03:25:06;;;;;;;61.67;30.40;;;;;;;8.15;83.29;99506.13;5100986;28;20065;-72
2022/11/16 03:27:47;;;;;;;54.90;30.30;;;;;;;8.21;82.27;99516.88;5102072;28;20036;-72
2022/11/16 03:30:18;;;;;;;62.63;30.30;;;;;;;8.14;81.99;99505.28;5101903;28;20040;-72
2022/11/16 03:32:55;;;;;;;61.95;30.02;;;;;;;8.10;81.67;99511.03;5101605;28;20100;-72
2022/11/16 03:35:33;;;;;;;73.70;33.88;;;;;;;8.00;81.70;99493.47;5101365;28;20352;-72
2022/11/16 03:38:02;;;;;;;70.15;33.42;;;;;;;8.15;82.19;99506.13;5098980;28;20047;-72
2022/11/16 03:40:30;;;;;;;118.38;43.80;;;;;;;8.06;81.35;99478.84;5102693;28;20043;-72
2022/11/16 03:42:59;;;;;;;62.15;29.60;;;;;;;7.90;80.63;99474.28;5103572;28;20388;-72
2022/11/16 03:45:24;;;;;;;61.38;30.70;;;;;;;7.88;80.82;99485.94;5101314;28;20382;-72
2022/11/16 03:47:50;;;;;;;59.08;28.50;;;;;;;7.65;81.25;99480.28;5101691;28;20055;-72
2022/11/16 03:50:16;;;;;;;69.72;30.48;;;;;;;7.66;81.29;99508.31;5101074;28;20059;-72
2022/11/16 03:52:41;;;;;;;79.20;34.25;;;;;;;7.57;81.82;99496.84;5101878;28;20401;-72
2022/11/16 03:55:07;;;;;;;77.35;35.63;;;;;;;7.50;83.66;99501.06;5102854;28;20039;-72
2022/11/16 03:57:32;;;;;;;73.97;34.80;;;;;;;7.22;85.21;99494.94;5102127;28;20066;-72
2022/11/16 03:59:58;;;;;;;92.32;43.03;;;;;;;7.36;85.50;99491.03;5101319;28;20067;-72
2022/11/16 04:02:23;;;;;;;79.82;38.97;;;;;;;7.54;85.22;99491.03;5100696;28;20038;-72
2022/11/16 04:24:17;;;;;;;66.32;32.40;;;;;;;7.69;81.55;99468.47;5097062;28;20100;-72
2022/11/16 04:29:30;;;;;;;64.00;30.25;;;;;;;7.51;83.18;99462.38;5100611;28;20109;-72
2022/11/16 04:40:08;;;;;;;68.18;32.13;;;;;;;7.53;83.66;99452.50;5100980;28;20109;-72
2022/11/16 04:42:33;;;;;;;78.97;35.67;;;;;;;7.35;84.47;99450.69;5101685;28;20036;-72
2022/11/16 04:47:43;;;;;;;75.28;32.92;;;;;;;7.47;85.08;99445.19;5101502;28;20309;-72
2022/11/16 04:50:09;;;;;;;84.63;32.90;;;;;;;7.32;85.61;99437.81;5103706;28;20049;-72
2022/11/16 04:52:35;;;;;;;75.47;34.10;;;;;;;7.36;86.04;99443.63;5103714;28;20051;-72
2022/11/16 04:55:00;;;;;;;82.60;32.78;;;;;;;7.28;86.43;99432.97;5103066;28;20069;-72
2022/11/16 04:57:26;;;;;;;90.70;33.38;;;;;;;7.37;86.46;99426.81;5103716;28;20059;-72
2022/11/16 04:59:51;;;;;;;87.90;36.70;;;;;;;7.41;86.15;99433.47;5103729;28;20218;-72
2022/11/16 05:02:17;;;;;;;76.13;33.05;;;;;;;7.24;86.41;99416.63;5103618;28;20031;-72
2022/11/16 05:04:43;;;;;;;85.85;33.85;;;;;;;7.32;86.18;99413.28;5103270;28;20079;-72
2022/11/16 05:07:10;;;;;;;141.40;41.85;;;;;;;7.47;85.76;99435.50;5103558;28;20032;-72
2022/11/16 05:09:41;;;;;;;117.50;37.13;;;;;;;7.41;86.52;99436.09;5102704;28;20212;-72
2022/11/16 05:12:15;;;;;;;84.05;33.83;;;;;;;7.19;87.17;99442.56;5103237;28;20031;-72
2022/11/16 05:14:42;;;;;;;87.40;29.85;;;;;;;7.07;87.07;99433.22;5103513;28;20083;-72
2022/11/16 05:17:09;;;;;;;110.70;37.35;;;;;;;7.22;86.84;99431.75;5103205;28;20044;-72
2022/11/16 05:22:18;;;;;;;68.75;31.50;;;;;;;7.40;85.62;99436.25;5103175;28;20065;-72
2022/11/16 05:24:44;;;;;;;86.80;36.78;;;;;;;7.40;84.77;99428.34;5102633;28;20036;-72
2022/11/16 05:27:13;;;;;;;90.90;33.88;;;;;;;7.33;83.83;99443.91;5103034;28;20089;-72
2022/11/16 05:29:39;;;;;;;67.80;29.13;;;;;;;7.13;83.98;99448.44;5103065;28;20240;-72
2022/11/16 05:32:05;;;;;;;64.85;28.90;;;;;;;7.15;83.12;99449.13;5102886;28;20035;-72
2022/11/16 05:34:30;;;;;;;65.35;30.73;;;;;;;7.14;83.32;99447.47;5103116;28;20050;-72
2022/11/16 05:36:56;;;;;;;57.55;26.55;;;;;;;7.13;83.05;99448.44;5103091;28;20040;-72
2022/11/16 05:39:22;;;;;;;58.75;27.58;;;;;;;7.12;82.56;99440.69;5101547;28;20039;-72
2022/11/16 05:41:48;;;;;;;51.88;27.08;;;;;;;7.20;82.80;99453.94;5100516;28;20077;-72
2022/11/16 05:44:14;;;;;;;55.00;27.92;;;;;;;7.28;82.54;99454.88;5101243;28;20301;-72
2022/11/16 05:46:41;;;;;;;107.50;34.38;;;;;;;7.36;81.66;99451.50;5097470;28;20048;-72
2022/11/16 05:49:06;;;;;;;75.55;32.85;;;;;;;7.37;81.53;99458.44;5097590;28;20061;-71
2022/11/16 05:51:36;;;;;;;83.13;36.67;;;;;;;7.42;81.29;99456.19;5098224;28;20032;-72
2022/11/16 05:54:03;;;;;;;66.07;32.00;;;;;;;7.36;81.09;99454.97;5098560;28;20098;-72
2022/11/16 05:56:28;;;;;;;73.50;32.67;;;;;;;7.31;81.84;99448.50;5100045;28;20044;-72
2022/11/16 05:58:54;;;;;;;71.15;33.03;;;;;;;7.41;80.91;99448.44;5102679;28;20209;-72
2022/11/16 06:01:20;;;;;;;72.55;34.72;;;;;;;7.30;81.04;99431.88;5102701;28;20077;-72
2022/11/16 06:03:45;;;;;;;77.57;35.28;;;;;;;7.46;80.64;99452.28;5102440;28;20077;-72
2022/11/16 06:06:11;;;;;;;72.38;34.22;;;;;;;7.48;80.59;99450.31;5102825;28;20028;-72
2022/11/16 06:08:36;;;;;;;81.30;33.70;;;;;;;7.52;81.23;99451.69;5102726;28;20030;-72
2022/11/16 06:11:06;;;;;;;82.25;39.63;;;;;;;7.64;81.42;99447.00;5102761;28;20020;-72
2022/11/16 06:13:32;;;;;;;76.28;37.45;;;;;;;7.40;82.36;99439.69;5101757;28;20049;-74
2022/11/16 06:15:59;;;;;;;70.60;35.00;;;;;;;7.35;83.21;99434.88;5100897;28;20042;-75
2022/11/16 06:18:24;;;;;;;73.63;35.33;;;;;;;7.48;82.29;99438.97;5099413;28;20317;-75
2022/11/16 06:20:50;;;;;;;70.30;35.58;;;;;;;7.59;82.43;99441.38;5100529;28;20055;-72
2022/11/16 06:23:15;;;;;;;74.85;35.45;;;;;;;7.66;81.69;99421.34;5104975;28;20024;-72
2022/11/16 06:25:41;;;;;;;109.05;48.20;;;;;;;7.78;81.30;99424.56;5104111;28;20206;-72
2022/11/16 06:28:07;;;;;;;86.38;42.53;;;;;;;7.84;81.12;99411.59;5104865;28;20040;-72
2022/11/16 06:30:32;;;;;;;84.15;41.03;;;;;;;7.82;81.27;99418.84;5105277;28;20062;-72
2022/11/16 06:32:58;;;;;;;87.20;42.45;;;;;;;7.94;81.51;99436.06;5104518;28;20036;-72
2022/11/16 06:35:23;;;;;;;63.97;35.85;;;;;;;7.90;82.26;99416.28;5104798;28;20020;-72
2022/11/16 06:37:49;;;;;;;76.63;35.90;;;;;;;7.87;83.25;99427.13;5103321;28;20032;-72
2022/11/16 06:40:14;;;;;;;65.38;32.00;;;;;;;7.77;84.02;99426.38;5104627;28;20020;-72
2022/11/16 06:42:40;;;;;;;51.05;26.13;;;;;;;7.83;84.65;99427.56;5104588;28;20399;-71
2022/11/16 06:45:06;;;;;;;58.42;24.38;;;;;;;7.81;84.86;99419.00;5104506;28;20070;-72
2022/11/16 06:47:33;;;;;;;71.40;30.90;;;;;;;7.93;84.90;99420.41;5104302;28;20062;-72
2022/11/16 06:49:59;;;;;;;57.75;26.80;;;;;;;7.92;84.78;99421.38;5104394;28;20016;-72
2022/11/16 06:52:24;;;;;;;52.83;24.25;;;;;;;8.08;84.79;99429.41;5098949;28;20386;-72
2022/11/16 06:54:49;;;;;;;193.43;58.38;;;;;;;8.19;84.58;99423.91;5095757;28;20038;-72
2022/11/16 06:57:15;;;;;;;111.18;39.10;;;;;;;8.43;84.33;99414.53;5096247;28;20059;-72
2022/11/16 06:59:40;;;;;;;50.70;26.50;;;;;;;8.61;84.33;99410.03;5093016;28;20145;-72
2022/11/16 07:02:06;;;;;;;49.10;24.88;;;;;;;8.88;83.85;99398.41;5095841;28;20028;-72
2022/11/16 07:04:32;;;;;;;51.97;26.23;;;;;;;9.17;83.10;99408.56;5094473;28;20024;-72
2022/11/16 07:06:57;;;;;;;55.50;25.88;;;;;;;9.22;82.45;99401.81;5091866;28;20040;-72
2022/11/16 07:09:22;;;;;;;109.63;38.67;;;;;;;9.23;82.46;99407.94;5091870;28;20240;-72
2022/11/16 07:11:48;;;;;;;44.50;23.98;;;;;;;9.33;82.95;99407.78;5093099;28;20063;-72
2022/11/16 07:14:13;;;;;;;333.23;83.03;;;;;;;9.43;82.42;99411.13;5096296;28;20103;-72
2022/11/16 07:16:39;;;;;;;77.18;29.08;;;;;;;9.50;83.05;99402.41;5092830;28;20082;-72
2022/11/16 07:19:05;;;;;;;43.50;24.15;;;;;;;9.41;82.49;99357.63;5091572;28;20059;-72
2022/11/16 07:21:31;;;;;;;45.90;24.40;;;;;;;9.61;82.50;99401.25;5101640;28;20115;-72
2022/11/16 07:23:57;;;;;;;51.05;25.55;;;;;;;9.85;82.05;99401.25;5101696;28;20028;-72
2022/11/16 07:26:22;;;;;;;86.85;32.67;;;;;;;9.96;81.26;99400.09;5103378;28;20229;-72
2022/11/16 07:28:48;;;;;;;188.95;54.38;;;;;;;9.92;82.02;99391.66;5103443;28;20032;-72
2022/11/16 07:31:14;;;;;;;59.35;28.23;;;;;;;10.11;81.55;99387.00;5103258;28;20040;-70
2022/11/16 07:33:40;;;;;;;48.05;25.90;;;;;;;10.22;81.88;99379.59;5101892;28;20047;-70
2022/11/16 07:36:10;;;;;;;54.45;27.33;;;;;;;10.27;81.46;99386.19;5102171;28;20028;-70
2022/11/16 07:38:37;;;;;;;52.40;27.27;;;;;;;10.37;82.18;99387.66;5103500;28;20035;-70
2022/11/16 07:41:08;;;;;;;58.55;29.98;;;;;;;10.54;81.88;99388.47;5103219;28;20032;-70
2022/11/16 07:43:36;;;;;;;71.07;34.38;;;;;;;10.41;82.82;99386.34;5102188;28;20028;-70
2022/11/16 07:46:06;;;;;;;53.17;28.83;;;;;;;10.18;84.16;99388.81;5102101;28;20067;-70
2022/11/16 07:48:32;;;;;;;56.33;30.65;;;;;;;10.54;83.82;99380.53;5103066;28;20036;-70
2022/11/16 07:51:00;;;;;;;70.00;33.65;;;;;;;10.83;82.98;99379.91;5102822;28;20043;-70
2022/11/16 07:53:25;;;;;;;53.08;29.15;;;;;;;10.91;83.17;99385.19;5102762;28;20063;-71
2022/11/16 07:55:52;;;;;;;74.07;33.53;;;;;;;10.81;83.27;99377.44;5102341;28;20257;-70
2022/11/16 07:58:18;;;;;;;102.13;37.50;;;;;;;10.64;83.46;99357.31;5103319;28;20039;-72
2022/11/16 08:00:44;;;;;;;69.50;33.10;;;;;;;10.78;83.83;99376.97;5103183;28;20032;-72
2022/11/16 08:03:09;;;;;;;62.60;31.10;;;;;;;10.89;83.36;99368.63;5102839;28;20080;-72
2022/11/16 08:05:34;;;;;;;60.20;31.98;;;;;;;11.16;83.08;99373.44;5102792;28;20032;-72
2022/11/16 08:08:00;;;;;;;61.15;32.40;;;;;;;11.41;81.79;99374.13;5102840;28;20086;-72
2022/11/16 08:10:25;;;;;;;62.42;34.63;;;;;;;11.57;80.89;99365.25;5102927;28;20059;-73
2022/11/16 08:12:51;;;;;;;68.13;35.58;;;;;;;11.74;80.76;99363.28;5102679;28;20360;-72
2022/11/16 08:15:16;;;;;;;65.70;34.17;;;;;;;11.86;80.08;99356.59;5102977;28;20297;-73
2022/11/16 08:17:42;;;;;;;61.90;33.65;;;;;;;12.07;79.62;99364.66;5102909;28;20020;-73
2022/11/16 08:20:08;;;;;;;66.22;35.80;;;;;;;12.19;79.45;99358.91;5102655;28;20104;-73
2022/11/16 08:22:34;;;;;;;75.00;37.22;;;;;;;11.83;80.40;99348.97;5102640;28;20050;-73
2022/11/16 08:24:59;;;;;;;67.45;36.67;;;;;;;11.95;80.76;99347.53;5102065;28;20032;-73
2022/11/16 08:27:25;;;;;;;65.05;34.67;;;;;;;12.11;80.74;99343.91;5102338;28;20103;-72
2022/11/16 08:29:51;;;;;;;68.00;35.42;;;;;;;12.26;80.83;99335.94;5102491;28;20028;-72
2022/11/16 08:32:16;;;;;;;71.15;35.88;;;;;;;12.26;80.49;99336.78;5102217;28;20107;-73
2022/11/16 08:34:41;;;;;;;70.13;36.47;;;;;;;12.52;79.30;99338.16;5102206;28;20095;-73
2022/11/16 08:37:07;;;;;;;73.15;38.38;;;;;;;12.46;79.38;99329.91;5101085;28;20367;-72
2022/11/16 08:39:32;;;;;;;87.85;45.70;;;;;;;12.40;79.98;99333.28;5102078;28;20031;-72
2022/11/16 08:41:58;;;;;;;90.50;47.53;;;;;;;12.30;79.96;99331.91;5102239;28;20075;-72
2022/11/16 08:44:23;;;;;;;88.30;43.60;;;;;;;12.33;80.70;99323.59;5102188;28;20261;-72
2022/11/16 08:46:49;;;;;;;71.63;40.22;;;;;;;12.50;80.16;99322.41;5102102;28;20081;-72
2022/11/16 08:49:14;;;;;;;72.43;39.08;;;;;;;12.49;80.49;99318.13;5101859;28;20083;-73
2022/11/16 08:51:39;;;;;;;72.57;37.78;;;;;;;12.57;80.59;99307.41;5102386;28;20028;-73
2022/11/16 08:54:05;;;;;;;80.88;39.33;;;;;;;12.85;80.02;99317.31;5101256;28;20035;-73
2022/11/16 08:56:31;;;;;;;72.93;38.63;;;;;;;12.66;80.01;99311.59;5101951;28;20035;-73
2022/11/16 08:58:59;;;;;;;77.32;39.05;;;;;;;12.50;81.40;99303.00;5089168;28;20024;-73
2022/11/16 09:01:27;;;;;;;71.05;36.83;;;;;;;12.70;80.73;99302.25;5089073;28;20032;-73
2022/11/16 09:03:53;;;;;;;74.32;36.75;;;;;;;12.79;78.08;99294.97;5097413;28;20034;-73
2022/11/16 09:06:19;;;;;;;67.40;35.08;;;;;;;12.81;77.08;99300.94;5090946;28;20092;-72
2022/11/16 09:08:45;;;;;;;69.85;37.08;;;;;;;12.84;77.77;99297.91;5093254;28;20028;-72
2022/11/16 09:11:16;;;;;;;73.18;36.72;;;;;;;12.81;78.22;99287.66;5090712;28;20081;-72
2022/11/16 09:13:43;;;;;;;61.92;34.85;;;;;;;12.60;79.02;99288.44;5094685;28;20070;-73
2022/11/16 09:16:09;;;;;;;72.32;38.45;;;;;;;12.56;79.04;99289.81;5090463;28;20095;-73
2022/11/16 09:18:35;;;;;;;68.53;37.63;;;;;;;12.87;78.48;99286.06;5091068;28;20044;-73
2022/11/16 09:21:01;;;;;;;65.90;34.63;;;;;;;13.02;77.69;99279.69;5094791;28;20020;-73
2022/11/16 09:23:26;;;;;;;65.22;33.28;;;;;;;13.03;77.90;99277.88;5089390;28;20024;-73
2022/11/16 09:25:53;;;;;;;70.40;37.53;;;;;;;12.65;79.50;99229.44;5090296;28;20040;-73
2022/11/16 09:28:19;;;;;;;71.95;37.75;;;;;;;12.65;80.09;99267.44;5092653;28;20081;-72
2022/11/16 09:30:47;;;;;;;72.50;39.75;;;;;;;12.69;79.69;99259.94;5094126;28;20027;-72
2022/11/16 09:33:12;;;;;;;66.60;35.42;;;;;;;12.67;79.69;99249.50;5093852;28;20047;-72
2022/11/16 09:35:39;;;;;;;67.80;36.15;;;;;;;12.51;79.06;99243.56;5092255;28;20201;-73
2022/11/16 09:38:05;;;;;;;72.63;37.63;;;;;;;12.52;80.35;99232.78;5090474;28;20040;-73
2022/11/16 09:40:36;;;;;;;74.28;36.17;;;;;;;12.45;79.52;99227.34;5096999;28;20039;-73
2022/11/16 09:43:16;;;;;;;73.57;39.70;;;;;;;12.40;81.31;99231.56;5090354;28;20138;-72
2022/11/16 09:45:41;;;;;;;73.57;39.10;;;;;;;12.52;81.72;99229.28;5092904;28;20047;-72
2022/11/16 09:48:11;;;;;;;78.95;38.67;;;;;;;12.43;81.02;99216.09;5092764;28;20093;-73
2022/11/16 09:50:48;;;;;;;79.50;40.42;;;;;;;12.45;82.31;99215.91;5093459;28;20032;-72
2022/11/16 09:53:24;;;;;;;78.10;39.00;;;;;;;12.53;82.64;99213.16;5093535;28;20043;-73
2022/11/16 09:55:52;;;;;;;69.32;37.88;;;;;;;12.73;81.16;99206.22;5096560;28;20065;-72
2022/11/16 09:58:29;;;;;;;71.05;36.17;;;;;;;12.58;79.57;99189.53;5089244;28;20023;-73
2022/11/16 10:01:05;;;;;;;67.85;36.47;;;;;;;12.72;80.10;99177.19;5090648;28;20024;-72
2022/11/16 10:03:39;;;;;;;66.70;34.55;;;;;;;13.00;78.29;99188.72;5091820;28;20038;-72
2022/11/16 10:06:14;;;;;;;66.95;35.75;;;;;;;12.99;77.60;99170.28;5094764;28;20016;-73
2022/11/16 10:08:46;;;;;;;70.03;35.95;;;;;;;13.16;78.42;99169.00;5092499;28;20028;-73
2022/11/16 10:11:20;;;;;;;66.97;37.88;;;;;;;12.97;80.34;99167.00;5094555;28;20587;-72
2022/11/16 10:13:55;;;;;;;74.47;38.38;;;;;;;12.75;80.89;99148.41;5090735;28;20036;-72
2022/11/16 10:16:48;;;;;;;75.15;39.35;;;;;;;12.86;81.39;99151.59;5089209;28;20322;-73
2022/11/16 10:19:28;;;;;;;66.30;36.40;;;;;;;12.75;80.93;99147.59;5092779;28;20092;-73
2022/11/16 10:22:31;;;;;;;75.82;38.90;;;;;;;12.92;80.80;99146.31;5092703;28;20013;-72
2022/11/16 10:25:19;;;;;;;69.65;36.92;;;;;;;13.30;79.60;99149.50;5039159;28;20030;-73
2022/11/16 10:28:08;;;;;;;72.63;38.55;;;;;;;13.31;79.64;99135.19;5091539;28;20040;-73
2022/11/16 10:30:42;;;;;;;73.72;39.05;;;;;;;13.19;80.43;99133.28;5083526;28;20037;-72
2022/11/16 10:33:18;;;;;;;72.72;36.70;;;;;;;12.97;82.00;99125.31;5092461;28;20070;-72
2022/11/16 10:35:52;;;;;;;72.43;38.20;;;;;;;13.07;81.45;99130.28;5094150;28;20221;-72
2022/11/16 10:38:27;;;;;;;73.78;38.53;;;;;;;12.94;81.15;99108.94;5091125;28;20728;-73
2022/11/16 10:41:00;;;;;;;74.93;36.55;;;;;;;13.03;81.13;99110.44;5091432;28;20063;-73
2022/11/16 10:43:29;;;;;;;74.07;39.47;;;;;;;13.01;81.27;99107.16;5092116;28;20039;-73
2022/11/16 10:46:18;;;;;;;71.93;38.42;;;;;;;12.97;82.01;99105.88;5093399;28;20040;-72
2022/11/16 10:48:49;;;;;;;73.65;38.42;;;;;;;12.93;81.80;99101.97;5091813;28;20039;-73
2022/11/16 10:51:15;;;;;;;80.03;41.90;;;;;;;13.08;81.28;99100.88;5088605;28;20044;-73
2022/11/16 10:53:43;;;;;;;76.72;40.95;;;;;;;13.14;81.13;99091.28;5096134;28;20042;-73
2022/11/16 10:56:20;;;;;;;76.10;40.17;;;;;;;13.21;81.12;99089.53;5088438;28;20039;-73
2022/11/16 10:58:51;;;;;;;77.50;40.47;;;;;;;13.11;81.53;99081.88;5093100;28;20028;-73
2022/11/16 11:01:36;;;;;;;75.82;40.58;;;;;;;13.13;81.44;99070.22;5093492;28;20262;-73
2022/11/16 11:04:16;;;;;;;81.78;42.65;;;;;;;13.17;81.37;99072.31;5093444;28;20217;-73
2022/11/16 11:06:43;;;;;;;76.03;40.83;;;;;;;13.30;80.96;99067.09;5091660;28;20058;-73
2022/11/16 11:09:24;;;;;;;77.13;39.33;;;;;;;13.29;81.07;99068.09;5086761;28;20217;-73
2022/11/16 11:15:05;;;;;;;77.28;41.40;;;;;;;13.46;80.99;99051.81;5104564;28;20056;-72
2022/11/16 11:17:33;;;;;;;70.28;38.40;;;;;;;13.55;80.58;99048.00;5102989;28;20089;-73
2022/11/16 11:20:05;;;;;;;73.72;38.40;;;;;;;13.55;81.88;99048.00;5103896;28;20288;-73
2022/11/16 11:22:47;;;;;;;69.93;37.50;;;;;;;13.59;81.37;99043.94;5103503;28;20032;-73
2022/11/16 11:25:28;;;;;;;70.30;37.53;;;;;;;13.85;79.98;99033.38;5103412;28;20039;-73
2022/11/16 11:28:32;;;;;;;71.95;37.05;;;;;;;14.05;79.13;99036.09;5103933;28;20028;-73
2022/11/16 11:31:24;;;;;;;68.53;38.05;;;;;;;14.35;79.09;99031.22;5101898;28;20035;-73
2022/11/16 11:33:56;;;;;;;67.65;36.85;;;;;;;14.30;78.85;99028.34;5103086;28;20099;-72
2022/11/16 11:36:25;;;;;;;68.35;36.70;;;;;;;14.26;78.70;99022.63;5103303;28;20028;-72
2022/11/16 11:39:05;;;;;;;74.32;37.03;;;;;;;14.46;77.50;99028.00;5103101;28;20351;-70
2022/11/16 11:41:37;;;;;;;74.82;37.08;;;;;;;14.62;76.58;99026.78;5103644;28;20191;-71
2022/11/16 11:44:04;;;;;;;65.85;34.35;;;;;;;14.53;77.06;99018.16;5103144;28;20055;-70
2022/11/16 11:46:34;;;;;;;67.43;34.88;;;;;;;14.44;77.19;99010.56;5102918;28;20036;-71
2022/11/16 11:49:13;;;;;;;63.85;34.58;;;;;;;14.25;78.75;99017.50;5103295;28;20206;-71
2022/11/16 11:51:42;;;;;;;64.75;36.15;;;;;;;14.52;77.13;99008.53;5103191;28;20043;-71
2022/11/16 11:54:21;;;;;;;63.17;34.03;;;;;;;14.62;76.14;99008.97;5100940;28;20096;-71
2022/11/16 11:56:47;;;;;;;63.40;33.35;;;;;;;14.81;75.38;99003.81;5103126;28;20032;-70
2022/11/16 11:59:19;;;;;;;63.47;32.42;;;;;;;14.89;75.48;98998.28;5102962;28;20046;-70
2022/11/16 12:02:05;;;;;;;60.92;31.88;;;;;;;14.86;75.89;98996.03;5103010;28;20036;-70
2022/11/16 12:04:56;;;;;;;64.75;35.13;;;;;;;14.86;76.36;98991.50;5102930;28;20032;-70
2022/11/16 12:07:34;;;;;;;55.65;32.00;;;;;;;14.82;76.08;98979.63;5090742;28;20085;-71
2022/11/16 12:10:10;;;;;;;63.03;32.65;;;;;;;14.85;75.15;98967.72;5102840;28;20313;-71
2022/11/16 12:13:16;;;;;;;60.95;33.35;;;;;;;15.08;74.01;98983.25;5102913;28;20234;-71
2022/11/16 12:16:10;;;;;;;56.65;30.88;;;;;;;15.06;75.09;98980.81;5089318;28;20044;-71
2022/11/16 12:19:03;;;;;;;49.30;28.15;;;;;;;15.23;73.19;98975.81;5092012;28;20236;-71